Time;durP1;ratioP1;P1;durP2;ratioP2;P2;SDS_P1;SDS_P2;PMS_P1;PMS_P2;Temp;Humidity;BMP_temperature;BMP_pressure;BME280_temperature;BME280_humidity;BME280_pressure;Samples;Min_cycle;Max_cycle;Signal;HPM_P1;HPM_P2
2024/02/25 00:01:18;;;;;;;4.70;2.60;;;;;;;-147.86;100.00;-17609.17;105755;1257;60007;-54
2024/02/25 00:03:46;;;;;;;5.20;2.80;;;;;;;-147.86;100.00;-17609.17;105893;1253;71583;-53
2024/02/25 00:06:14;;;;;;;6.60;2.20;;;;;;;-147.86;100.00;-17609.17;105701;1257;64492;-50
2024/02/25 00:08:42;;;;;;;2.60;1.90;;;;;;;-147.86;100.00;-17609.17;105859;1254;71386;-50
2024/02/25 00:11:10;;;;;;;12.10;2.60;;;;;;;-147.86;100.00;-17609.17;105863;1255;59682;-55
2024/02/25 00:13:38;;;;;;;9.30;2.00;;;;;;;-147.86;100.00;-17609.17;105834;1252;59546;-51
2024/02/25 00:16:06;;;;;;;4.20;2.00;;;;;;;-147.86;100.00;-17609.17;105828;1257;73059;-52
2024/02/25 00:18:34;;;;;;;8.40;1.80;;;;;;;-147.86;100.00;-17609.17;105929;1253;63044;-52
2024/02/25 00:21:02;;;;;;;9.60;2.40;;;;;;;-147.86;100.00;-17609.17;105750;1257;71540;-57
2024/02/25 00:23:30;;;;;;;4.30;1.90;;;;;;;-147.86;100.00;-17609.17;105726;1253;60550;-56
2024/02/25 00:25:58;;;;;;;6.20;2.20;;;;;;;-147.86;100.00;-17609.17;105695;1258;60442;-56
2024/02/25 00:28:26;;;;;;;6.20;2.40;;;;;;;-147.86;100.00;-17609.17;105732;1257;72876;-54
2024/02/25 00:30:54;;;;;;;3.00;1.80;;;;;;;-147.86;100.00;-17609.17;105780;1254;63445;-56
2024/02/25 00:33:22;;;;;;;3.80;2.00;;;;;;;-147.86;100.00;-17609.17;105700;1254;71364;-57
2024/02/25 00:35:50;;;;;;;5.00;2.00;;;;;;;-147.86;100.00;-17609.17;105718;1257;60924;-54
2024/02/25 00:38:18;;;;;;;3.30;1.90;;;;;;;-147.86;100.00;-17609.17;105897;1257;60504;-56
2024/02/25 00:40:46;;;;;;;6.60;1.70;;;;;;;-147.86;100.00;-17609.17;105735;1254;72633;-57
2024/02/25 00:43:27;;;;;;;7.00;2.00;;;;;;;-147.86;100.00;-17609.17;105844;1253;63451;-54
2024/02/25 00:45:55;;;;;;;6.90;2.00;;;;;;;-147.86;100.00;-17609.17;105912;1252;73124;-56
2024/02/25 00:48:22;;;;;;;8.90;2.20;;;;;;;-147.86;100.00;-17609.17;105851;1253;60560;-56
2024/02/25 00:50:50;;;;;;;4.70;2.40;;;;;;;-147.86;100.00;-17609.17;105863;1257;60394;-55
2024/02/25 00:53:18;;;;;;;8.00;1.90;;;;;;;-147.86;100.00;-17609.17;105681;1257;73875;-58
2024/02/25 00:55:47;;;;;;;4.60;2.10;;;;;;;-147.86;100.00;-17609.17;105968;1254;63218;-54
2024/02/25 00:58:15;;;;;;;6.20;2.10;;;;;;;-147.86;100.00;-17609.17;105746;1257;71423;-50
2024/02/25 01:00:43;;;;;;;7.80;2.50;;;;;;;-147.86;100.00;-17609.17;105759;1257;60546;-55
2024/02/25 01:03:10;;;;;;;7.30;2.10;;;;;;;-147.86;100.00;-17609.17;105709;1257;60448;-50
2024/02/25 01:05:38;;;;;;;13.40;2.60;;;;;;;-147.86;100.00;-17609.17;105690;1259;72695;-55
2024/02/25 01:08:08;;;;;;;5.60;2.30;;;;;;;-147.86;100.00;-17609.17;105726;1257;63259;-54
2024/02/25 01:10:36;;;;;;;3.50;2.00;;;;;;;-147.86;100.00;-17609.17;105791;1253;71731;-51
2024/02/25 01:13:04;;;;;;;10.10;2.20;;;;;;;-147.86;100.00;-17609.17;105715;1257;60547;-56
2024/02/25 01:15:31;;;;;;;4.40;2.00;;;;;;;-147.86;100.00;-17609.17;105885;1258;60684;-58
2024/02/25 01:18:00;;;;;;;8.20;2.30;;;;;;;-147.86;100.00;-17609.17;105701;1253;72630;-50
2024/02/25 01:20:30;;;;;;;8.90;2.40;;;;;;;-147.86;100.00;-17609.17;105761;1252;64364;-51
2024/02/25 01:22:58;;;;;;;5.60;2.10;;;;;;;-147.86;100.00;-17609.17;105686;1257;73261;-53
2024/02/25 01:25:26;;;;;;;5.60;2.50;;;;;;;-147.86;100.00;-17609.17;105781;1253;60559;-53
2024/02/25 01:27:54;;;;;;;4.40;2.50;;;;;;;-147.86;100.00;-17609.17;105685;1253;60385;-53
2024/02/25 01:30:23;;;;;;;5.50;2.40;;;;;;;-147.86;100.00;-17609.17;105696;1257;73792;-55
2024/02/25 01:32:51;;;;;;;9.20;2.60;;;;;;;-147.86;100.00;-17609.17;105893;1251;63572;-51
2024/02/25 01:35:19;;;;;;;6.40;2.20;;;;;;;-147.86;100.00;-17609.17;105898;1257;71650;-53
2024/02/25 01:37:47;;;;;;;7.50;2.50;;;;;;;-147.86;100.00;-17609.17;105928;1254;60553;-50
2024/02/25 01:40:15;;;;;;;7.30;2.50;;;;;;;-147.86;100.00;-17609.17;105726;1253;60604;-53
2024/02/25 01:42:44;;;;;;;5.60;2.50;;;;;;;-147.86;100.00;-17609.17;105732;1257;73886;-51
2024/02/25 01:45:12;;;;;;;13.90;3.20;;;;;;;-147.86;100.00;-17609.17;105926;1253;64728;-54
2024/02/25 01:47:40;;;;;;;8.50;2.30;;;;;;;-147.86;100.00;-17609.17;105847;1254;71559;-54
2024/02/25 01:50:09;;;;;;;6.60;2.30;;;;;;;-147.86;100.00;-17609.17;105754;1253;60505;-57
2024/02/25 01:52:37;;;;;;;4.60;2.60;;;;;;;-147.86;100.00;-17609.17;105770;1251;60470;-54
2024/02/25 01:55:05;;;;;;;16.80;3.10;;;;;;;-147.86;100.00;-17609.17;105738;1254;72659;-54
2024/02/25 01:57:33;;;;;;;3.70;2.30;;;;;;;-147.86;100.00;-17609.17;105739;1257;63164;-54
2024/02/25 02:00:00;;;;;;;7.90;2.90;;;;;;;-147.86;100.00;-17609.17;105700;1253;72614;-54
2024/02/25 02:02:31;;;;;;;10.90;3.20;;;;;;;-147.86;100.00;-17609.17;105759;1253;60519;-54
2024/02/25 03:01:23;;;;;;;6.00;2.70;;;;;;;-147.86;100.00;-17609.17;102449;1294;603382;-49
2024/02/25 03:03:50;;;;;;;6.80;3.20;;;;;;;-147.86;100.00;-17609.17;105127;1264;59700;-57
2024/02/25 03:06:18;;;;;;;11.10;4.20;;;;;;;-147.86;100.00;-17609.17;105210;1263;60138;-54
2024/02/25 03:08:45;;;;;;;6.00;3.00;;;;;;;-147.86;100.00;-17609.17;105181;1263;72230;-54
2024/02/25 03:11:12;;;;;;;16.90;4.30;;;;;;;-147.86;100.00;-17609.17;105212;1267;64698;-51
2024/02/25 03:13:39;;;;;;;8.10;3.60;;;;;;;-147.86;100.00;-17609.17;104963;1265;384033;-55
2024/02/25 03:16:06;;;;;;;13.80;3.70;;;;;;;-147.86;100.00;-17609.17;105346;1259;59264;-54
2024/02/25 03:18:33;;;;;;;13.70;3.70;;;;;;;-147.86;100.00;-17609.17;105320;1260;60163;-53
2024/02/25 03:21:00;;;;;;;11.90;3.50;;;;;;;-147.86;100.00;-17609.17;105279;1260;72213;-55
2024/02/25 03:23:27;;;;;;;9.60;3.60;;;;;;;-147.86;100.00;-17609.17;105309;1263;64566;-56
2024/02/25 03:25:54;;;;;;;9.60;3.60;;;;;;;-147.86;100.00;-17609.17;105304;1260;72439;-57
2024/02/25 03:28:21;;;;;;;13.60;3.50;;;;;;;-147.86;100.00;-17609.17;105268;1260;59979;-51
2024/02/25 03:30:49;;;;;;;10.60;3.40;;;;;;;-147.86;100.00;-17609.17;105300;1260;60102;-52
2024/02/25 03:33:16;;;;;;;11.50;3.80;;;;;;;-147.86;100.00;-17609.17;105271;1260;72968;-56
2024/02/25 03:35:43;;;;;;;14.50;4.50;;;;;;;-147.86;100.00;-17609.17;105297;1264;63658;-56
2024/02/25 03:38:10;;;;;;;9.40;3.30;;;;;;;-147.86;100.00;-17609.17;105679;1253;72611;-54
2024/02/25 03:40:37;;;;;;;9.80;3.10;;;;;;;-147.86;100.00;-17609.17;105732;1258;59760;-57
2024/02/25 03:43:04;;;;;;;8.00;3.50;;;;;;;-147.86;100.00;-17609.17;105725;1253;60323;-50
2024/02/25 03:45:31;;;;;;;7.10;3.70;;;;;;;-147.86;100.00;-17609.17;105728;1254;72895;-52
2024/02/25 03:47:57;;;;;;;10.20;3.70;;;;;;;-147.86;100.00;-17609.17;105691;1257;65178;-55
2024/02/25 03:50:24;;;;;;;23.10;3.70;;;;;;;-147.86;100.00;-17609.17;105682;1253;72618;-52
2024/02/25 03:52:51;;;;;;;11.00;3.50;;;;;;;-147.86;100.00;-17609.17;105630;1257;61172;-57
2024/02/25 03:55:19;;;;;;;8.90;3.60;;;;;;;-147.86;100.00;-17609.17;105690;1253;60324;-51
2024/02/25 03:57:45;;;;;;;8.90;3.70;;;;;;;-147.86;100.00;-17609.17;105663;1256;73088;-56
2024/02/25 04:00:13;;;;;;;14.70;4.30;;;;;;;-147.86;100.00;-17609.17;105637;1260;64612;-55
2024/02/25 04:02:41;;;;;;;7.90;3.80;;;;;;;-147.86;100.00;-17609.17;105657;1261;72515;-56
2024/02/25 04:05:09;;;;;;;13.50;3.90;;;;;;;-147.86;100.00;-17609.17;105700;1259;59737;-54
2024/02/25 04:07:37;;;;;;;13.90;3.90;;;;;;;-147.86;100.00;-17609.17;105687;1256;60222;-55
2024/02/25 04:10:04;;;;;;;10.10;4.00;;;;;;;-147.86;100.00;-17609.17;105633;1257;72987;-55
2024/02/25 04:12:32;;;;;;;9.20;4.20;;;;;;;-147.86;100.00;-17609.17;105653;1259;64659;-51
2024/02/25 04:14:59;;;;;;;8.50;3.70;;;;;;;-147.86;100.00;-17609.17;105630;1257;72682;-55
2024/02/25 04:17:26;;;;;;;8.80;3.50;;;;;;;-147.86;100.00;-17609.17;105589;1259;61301;-55
2024/02/25 04:19:54;;;;;;;11.30;4.30;;;;;;;-147.86;100.00;-17609.17;105646;1257;60254;-55
2024/02/25 04:22:21;;;;;;;11.60;4.40;;;;;;;-147.86;100.00;-17609.17;105651;1256;73063;-55
2024/02/25 04:24:48;;;;;;;11.10;4.60;;;;;;;-147.86;100.00;-17609.17;105598;1259;64721;-54
2024/02/25 04:27:15;;;;;;;12.80;4.10;;;;;;;-147.86;100.00;-17609.17;105649;1256;72477;-55
2024/02/25 04:29:43;;;;;;;13.10;3.60;;;;;;;-147.86;100.00;-17609.17;105593;1259;61071;-53
2024/02/25 04:32:11;;;;;;;16.00;4.00;;;;;;;-147.86;100.00;-17609.17;105652;1257;60012;-54
2024/02/25 04:34:38;;;;;;;9.40;3.60;;;;;;;-147.86;100.00;-17609.17;105660;1257;73117;-55
2024/02/25 04:37:05;;;;;;;13.90;3.40;;;;;;;-147.86;100.00;-17609.17;105639;1259;64556;-53
2024/02/25 04:39:32;;;;;;;5.40;3.10;;;;;;;-147.86;100.00;-17609.17;105598;1259;72600;-52
2024/02/25 04:41:59;;;;;;;13.60;4.10;;;;;;;-147.86;100.00;-17609.17;105601;1259;59651;-53
2024/02/25 04:44:26;;;;;;;7.90;3.40;;;;;;;-147.86;100.00;-17609.17;105587;1256;60191;-54
2024/02/25 04:46:53;;;;;;;8.10;3.40;;;;;;;-147.86;100.00;-17609.17;105622;1257;72846;-54
2024/02/25 04:49:19;;;;;;;18.00;3.70;;;;;;;-147.86;100.00;-17609.17;105621;1259;64800;-54
2024/02/25 04:51:46;;;;;;;9.90;3.40;;;;;;;-147.86;100.00;-17609.17;105591;1259;72606;-56
2024/02/25 04:54:15;;;;;;;14.70;3.20;;;;;;;-147.86;100.00;-17609.17;105660;1259;59667;-57
2024/02/25 04:56:42;;;;;;;13.50;4.20;;;;;;;-147.86;100.00;-17609.17;105762;1255;60243;-52
2024/02/25 04:59:10;;;;;;;4.80;3.30;;;;;;;-147.86;100.00;-17609.17;105665;1257;72800;-53
2024/02/25 05:02:03;;;;;;;7.00;3.20;;;;;;;-147.86;100.00;-17609.17;105657;1256;63935;-51
2024/02/25 05:04:31;;;;;;;6.70;2.70;;;;;;;-147.86;100.00;-17609.17;105593;1256;72354;-54
2024/02/25 05:06:58;;;;;;;8.20;3.00;;;;;;;-147.86;100.00;-17609.17;105583;1259;59804;-55
2024/02/25 05:09:25;;;;;;;7.60;3.70;;;;;;;-147.86;100.00;-17609.17;105628;1256;60212;-53
2024/02/25 05:11:52;;;;;;;5.90;3.30;;;;;;;-147.86;100.00;-17609.17;105636;1259;73015;-57
2024/02/25 05:14:19;;;;;;;10.30;3.50;;;;;;;-147.86;100.00;-17609.17;105662;1259;64659;-53
2024/02/25 05:16:47;;;;;;;13.00;3.90;;;;;;;-147.86;100.00;-17609.17;105585;1259;72662;-55
2024/02/25 05:19:14;;;;;;;7.60;3.50;;;;;;;-147.86;100.00;-17609.17;105597;1259;59574;-54
2024/02/25 05:21:41;;;;;;;8.00;3.70;;;;;;;-147.86;100.00;-17609.17;105700;1256;60312;-51
2024/02/25 05:24:09;;;;;;;11.30;4.70;;;;;;;-147.86;100.00;-17609.17;105675;1259;73116;-54
2024/02/25 05:26:36;;;;;;;9.80;3.50;;;;;;;-147.86;100.00;-17609.17;105701;1259;64632;-55
2024/02/25 05:29:03;;;;;;;5.10;2.90;;;;;;;-147.86;100.00;-17609.17;105656;1259;72687;-58
2024/02/25 05:31:30;;;;;;;10.50;3.50;;;;;;;-147.86;100.00;-17609.17;105657;1259;59832;-55
2024/02/25 05:33:57;;;;;;;8.30;3.70;;;;;;;-147.86;100.00;-17609.17;105687;1256;60168;-55
2024/02/25 05:36:24;;;;;;;10.10;2.90;;;;;;;-147.86;100.00;-17609.17;105621;1259;72929;-55
2024/02/25 05:38:51;;;;;;;8.40;3.00;;;;;;;-147.86;100.00;-17609.17;105587;1259;64736;-54
2024/02/25 05:41:18;;;;;;;7.70;2.80;;;;;;;-147.86;100.00;-17609.17;105623;1259;72460;-58
2024/02/25 05:43:45;;;;;;;4.00;2.60;;;;;;;-147.86;100.00;-17609.17;105669;1259;59750;-51
2024/02/25 05:46:12;;;;;;;19.50;3.50;;;;;;;-147.86;100.00;-17609.17;105659;1257;60320;-54
2024/02/25 05:48:39;;;;;;;9.30;2.80;;;;;;;-147.86;100.00;-17609.17;105663;1257;72099;-51
2024/02/25 05:51:07;;;;;;;9.30;2.80;;;;;;;-147.86;100.00;-17609.17;105641;1259;64741;-54
2024/02/25 05:53:34;;;;;;;12.70;3.60;;;;;;;-147.86;100.00;-17609.17;105697;1256;72620;-53
2024/02/25 05:56:01;;;;;;;9.00;2.70;;;;;;;-147.86;100.00;-17609.17;105640;1259;61170;-49
2024/02/25 05:58:29;;;;;;;9.20;2.90;;;;;;;-147.86;100.00;-17609.17;105617;1255;60352;-57
2024/02/25 06:00:55;;;;;;;5.10;2.30;;;;;;;-147.86;100.00;-17609.17;105649;1256;73056;-53
2024/02/25 06:03:23;;;;;;;10.60;3.00;;;;;;;-147.86;100.00;-17609.17;105623;1259;64668;-53
2024/02/25 06:05:50;;;;;;;12.40;2.80;;;;;;;-147.86;100.00;-17609.17;105649;1256;72683;-58
2024/02/25 06:08:17;;;;;;;7.00;2.70;;;;;;;-147.86;100.00;-17609.17;105633;1259;59630;-52
2024/02/25 06:10:44;;;;;;;6.40;3.20;;;;;;;-147.86;100.00;-17609.17;105670;1259;60157;-57
2024/02/25 06:13:11;;;;;;;14.70;3.10;;;;;;;-147.86;100.00;-17609.17;105610;1256;73048;-56
2024/02/25 06:15:38;;;;;;;13.90;2.80;;;;;;;-147.86;100.00;-17609.17;105643;1259;64605;-56
2024/02/25 06:18:07;;;;;;;4.90;2.10;;;;;;;-147.86;100.00;-17609.17;105595;1257;72643;-54
2024/02/25 06:20:34;;;;;;;9.40;2.40;;;;;;;-147.86;100.00;-17609.17;105679;1256;60903;-50
2024/02/25 06:23:02;;;;;;;7.70;1.80;;;;;;;-147.86;100.00;-17609.17;105737;1257;60413;-53
2024/02/25 06:25:29;;;;;;;12.20;2.70;;;;;;;-147.86;100.00;-17609.17;105683;1257;73003;-55
2024/02/25 06:27:56;;;;;;;3.30;1.80;;;;;;;-147.86;100.00;-17609.17;105612;1259;64645;-53
2024/02/25 06:30:23;;;;;;;8.30;2.00;;;;;;;-147.86;100.00;-17609.17;105599;1255;71256;-55
2024/02/25 06:32:50;;;;;;;6.20;2.80;;;;;;;-147.86;100.00;-17609.17;105596;1256;59746;-53
2024/02/25 06:35:18;;;;;;;7.50;2.30;;;;;;;-147.86;100.00;-17609.17;105623;1257;60320;-54
2024/02/25 06:37:44;;;;;;;4.40;2.40;;;;;;;-147.86;100.00;-17609.17;105659;1259;72947;-52
2024/02/25 06:40:13;;;;;;;8.90;3.10;;;;;;;-147.86;100.00;-17609.17;105620;1259;64722;-57
2024/02/25 06:42:40;;;;;;;3.90;2.00;;;;;;;-147.86;100.00;-17609.17;105628;1257;71377;-50
2024/02/25 06:45:08;;;;;;;7.40;2.10;;;;;;;-147.86;100.00;-17609.17;105651;1259;59752;-54
2024/02/25 06:47:36;;;;;;;6.90;2.50;;;;;;;-147.86;100.00;-17609.17;105608;1257;60279;-56
2024/02/25 06:50:03;;;;;;;17.60;3.10;;;;;;;-147.86;100.00;-17609.17;105672;1257;72888;-55
2024/02/25 06:52:31;;;;;;;9.40;2.90;;;;;;;-147.86;100.00;-17609.17;105656;1259;64875;-56
2024/02/25 06:54:58;;;;;;;5.50;2.50;;;;;;;-147.86;100.00;-17609.17;105556;1256;72623;-56
2024/02/25 06:57:25;;;;;;;5.10;2.30;;;;;;;-147.86;100.00;-17609.17;105598;1259;59740;-51
2024/02/25 06:59:51;;;;;;;3.90;2.30;;;;;;;-147.86;100.00;-17609.17;105714;1256;60309;-55
2024/02/25 07:02:18;;;;;;;12.80;2.60;;;;;;;-147.86;100.00;-17609.17;105637;1257;72924;-51
2024/02/25 07:04:45;;;;;;;9.60;2.10;;;;;;;-147.86;100.00;-17609.17;105587;1259;64628;-54
2024/02/25 07:07:12;;;;;;;6.70;2.50;;;;;;;-147.86;100.00;-17609.17;105638;1257;72623;-53
2024/02/25 07:09:39;;;;;;;14.10;2.60;;;;;;;-147.86;100.00;-17609.17;105587;1259;60597;-55
2024/02/25 07:12:07;;;;;;;11.20;2.10;;;;;;;-147.86;100.00;-17609.17;105643;1256;60547;-50
2024/02/25 07:14:34;;;;;;;9.20;2.40;;;;;;;-147.86;100.00;-17608.88;105874;1256;73713;-56
2024/02/25 07:17:00;;;;;;;9.80;2.90;;;;;;;-147.86;100.00;-17607.72;105891;1256;64613;-50
2024/02/25 07:19:27;;;;;;;8.60;2.70;;;;;;;-147.86;100.00;-17361.00;105926;1253;72619;-55
2024/02/25 07:21:54;;;;;;;5.90;2.80;;;;;;;-147.86;100.00;-17262.31;105897;1256;60354;-54
2024/02/25 07:24:21;;;;;;;5.50;2.60;;;;;;;-147.86;100.00;-17114.27;105871;1253;60556;-55
2024/02/25 07:26:50;;;;;;;6.70;2.60;;;;;;;-147.86;100.00;-16818.16;105819;1256;75139;-54
2024/02/25 07:29:17;;;;;;;5.20;2.60;;;;;;;-147.86;100.00;-16423.33;105777;1256;63641;-55
2024/02/25 07:31:44;;;;;;;10.50;2.30;;;;;;;-147.86;100.00;-16768.81;105870;1254;71536;-53
2024/02/25 07:34:11;;;;;;;5.30;2.10;;;;;;;-147.86;100.00;-16768.81;105923;1253;61172;-54
2024/02/25 07:36:38;;;;;;;11.00;2.20;;;;;;;-147.86;100.00;-16719.46;105879;1253;60441;-50
2024/02/25 07:39:05;;;;;;;36.60;15.50;;;;;;;-147.86;100.00;-16423.31;105653;1258;73953;-50
2024/02/25 07:41:32;;;;;;;7.40;3.30;;;;;;;-147.86;100.00;-14794.18;105868;1256;64655;-52
2024/02/25 07:43:59;;;;;;;4.80;3.40;;;;;;;-147.86;100.00;-13855.88;105828;1253;72629;-55
2024/02/25 07:46:27;;;;;;;7.20;2.90;;;;;;;-147.86;100.00;-14300.37;105898;1253;60579;-59
2024/02/25 07:48:53;;;;;;;6.10;3.80;;;;;;;-147.86;100.00;-13016.16;105917;1253;60447;-58
2024/02/25 07:51:22;;;;;;;6.40;3.00;;;;;;;-147.86;100.00;-13114.96;105849;1252;73935;-55
2024/02/25 07:53:49;;;;;;;9.90;3.00;;;;;;;-147.86;100.00;-14102.82;105914;1255;64362;-58
2024/02/25 07:56:18;;;;;;;7.50;3.30;;;;;;;-147.86;100.00;-15041.07;105894;1254;72629;-52
2024/02/25 07:58:46;;;;;;;6.40;2.90;;;;;;;-147.86;100.00;-15189.20;105883;1256;60547;-54
2024/02/25 08:01:12;;;;;;;9.90;2.90;;;;;;;-147.86;100.00;-15485.42;106027;1255;60569;-53
2024/02/25 08:03:40;;;;;;;10.00;2.50;;;;;;;-147.86;100.00;-15386.69;105903;1255;73832;-54
2024/02/25 08:06:06;;;;;;;9.50;2.90;;;;;;;-147.86;100.00;-15139.83;105896;1256;64660;-51
2024/02/25 08:08:34;;;;;;;7.50;2.40;;;;;;;-147.86;100.00;-14942.33;105921;1253;72628;-56
2024/02/25 08:11:01;;;;;;;6.70;2.90;;;;;;;-147.86;100.00;-14942.33;105914;1256;60362;-55
2024/02/25 08:13:28;;;;;;;10.30;2.90;;;;;;;-147.86;100.00;-15436.05;105868;1253;60540;-59
2024/02/25 08:15:55;;;;;;;6.90;2.90;;;;;;;-147.86;100.00;-14991.68;105887;1256;73712;-52
2024/02/25 08:18:23;;;;;;;4.80;2.60;;;;;;;-147.86;100.00;-14448.53;105938;1256;64603;-56
2024/02/25 08:20:50;;;;;;;9.40;3.40;;;;;;;-147.86;100.00;-15436.05;105931;1253;72603;-53
2024/02/25 08:23:17;;;;;;;10.20;2.90;;;;;;;-147.86;100.00;-15041.07;105870;1256;60415;-54
2024/02/25 08:25:44;;;;;;;12.00;3.40;;;;;;;-147.86;100.00;-14004.02;105982;1256;60900;-55
2024/02/25 08:28:11;;;;;;;9.30;3.20;;;;;;;-147.86;100.00;-13016.16;105899;1256;72808;-52
2024/02/25 08:32:01;;;;;;;9.10;3.10;;;;;;;-147.86;100.00;-11731.49;102722;1290;600363;-55
2024/02/25 08:34:28;;;;;;;3.60;2.70;;;;;;;-147.86;100.00;-11583.24;105069;1263;59362;-57
2024/02/25 08:36:56;;;;;;;5.30;3.30;;;;;;;-147.86;100.00;-10396.98;105050;1264;59953;-55
2024/02/25 08:39:25;;;;;;;12.60;3.90;;;;;;;-147.86;100.00;-8567.44;104871;1269;71169;-57
2024/02/25 08:41:53;;;;;;;7.70;3.00;;;;;;;-147.86;100.00;-7083.37;105077;1269;64292;-49
2024/02/25 08:44:21;;;;;;;9.00;3.20;;;;;;;-147.86;100.00;-5747.27;105062;1269;71380;-55
2024/02/25 08:46:48;;;;;;;7.00;2.50;;;;;;;-147.86;100.00;-3965.00;104964;1263;246022;-57
2024/02/25 08:49:19;;;;;;;6.90;2.60;;;;;;;-147.86;100.00;-3915.50;105252;1263;59395;-57
2024/02/25 08:51:47;;;;;;;5.60;2.50;;;;;;;-147.86;100.00;-4757.25;105201;1264;72403;-55
2024/02/25 08:54:15;;;;;;;8.50;2.70;;;;;;;-147.86;100.00;-4460.19;105917;1256;63257;-54
2024/02/25 08:56:43;;;;;;;7.60;2.80;;;;;;;-147.86;100.00;-3915.52;105921;1256;74596;-53
2024/02/25 08:59:11;;;;;;;9.90;2.80;;;;;;;-147.86;100.00;-1240.54;105768;1257;59679;-51
2024/02/25 09:01:39;;;;;;;5.90;2.70;;;;;;;-147.86;100.00;444.62;105782;1256;60363;-55
2024/02/25 09:04:08;;;;;;;5.10;2.80;;;;;;;-147.86;99.96;4263.92;105779;1256;73332;-53
2024/02/25 09:06:36;;;;;;;9.90;3.50;;;;;;;-147.86;99.83;6944.35;105838;1254;63197;-55
2024/02/25 09:09:05;;;;;;;7.30;3.10;;;;;;;-147.86;99.69;7987.32;105785;1253;71448;-55
2024/02/25 09:11:33;;;;;;;10.60;3.40;;;;;;;-147.86;99.84;7788.63;105784;1255;60076;-55
2024/02/25 09:14:01;;;;;;;15.70;3.00;;;;;;;-147.86;100.00;5405.39;105767;1256;59867;-55
2024/02/25 09:16:28;;;;;;;7.50;2.90;;;;;;;-147.86;100.00;3023.34;105748;1251;72917;-53
2024/02/25 09:18:57;;;;;;;8.40;2.90;;;;;;;-147.86;100.00;3866.77;105787;1259;64196;-49
2024/02/25 09:21:25;;;;;;;9.40;2.90;;;;;;;-147.86;100.00;5554.17;105813;1256;72922;-53
2024/02/25 09:23:52;;;;;;;9.20;2.70;;;;;;;-147.86;100.00;3767.62;105772;1259;59746;-56
2024/02/25 09:26:22;;;;;;;10.90;2.80;;;;;;;-147.86;100.00;2130.52;105875;1256;59640;-56
2024/02/25 09:29:01;;;;;;;7.10;2.50;;;;;;;-147.86;100.00;2973.73;105775;1256;71758;-57
2024/02/25 09:31:29;;;;;;;7.20;2.60;;;;;;;-147.86;100.00;1089.14;105940;1256;63161;-57
2024/02/25 09:33:58;;;;;;;15.40;2.70;;;;;;;-147.86;100.00;395.02;105740;1259;71642;-56
2024/02/25 09:36:27;;;;;;;12.20;3.00;;;;;;;-147.86;100.00;-1141.46;105779;1257;60523;-55
2024/02/25 09:38:55;;;;;;;5.80;3.00;;;;;;;-147.86;100.00;-2925.02;105740;1252;60271;-56
2024/02/25 09:41:27;;;;;;;10.00;2.70;;;;;;;-147.86;100.00;-4707.69;105785;1258;73653;-53
2024/02/25 09:43:56;;;;;;;11.40;3.20;;;;;;;-147.86;100.00;-6835.98;105772;1257;66753;-53
2024/02/25 09:46:25;;;;;;;9.30;3.70;;;;;;;-147.86;100.00;-7578.16;105757;1259;71638;-55
2024/02/25 09:48:53;;;;;;;10.20;3.80;;;;;;;-147.86;100.00;-7231.82;105768;1257;61121;-55
2024/02/25 09:51:21;;;;;;;13.00;3.80;;;;;;;-147.86;100.00;-5153.26;105803;1258;59546;-49
2024/02/25 09:53:50;;;;;;;11.70;4.00;;;;;;;-147.86;100.00;-4212.63;105749;1257;72306;-50
2024/02/25 09:56:19;;;;;;;13.40;4.00;;;;;;;-147.86;100.00;-4955.27;105762;1254;63622;-55
2024/02/25 09:58:48;;;;;;;19.30;5.90;;;;;;;-147.86;100.00;-4262.08;105768;1259;73082;-53
2024/02/25 10:01:16;;;;;;;17.00;6.50;;;;;;;-147.86;100.00;-744.96;105756;1259;59886;-52
2024/02/25 10:03:44;;;;;;;18.00;6.40;;;;;;;-147.86;100.00;-1636.98;105749;1256;62279;-51
2024/02/25 10:06:12;;;;;;;11.90;5.00;;;;;;;-147.86;100.00;-893.70;105830;1251;73920;-55
2024/02/25 10:08:47;;;;;;;20.60;5.60;;;;;;;-147.86;100.00;-100.68;105797;1259;66729;-52
2024/02/25 10:11:16;;;;;;;9.20;4.50;;;;;;;-147.86;100.00;2477.71;105825;1256;72607;-52
2024/02/25 10:13:46;;;;;;;12.00;4.70;;;;;;;-147.86;100.00;2924.12;105843;1256;59725;-54
2024/02/25 10:16:20;;;;;;;12.70;4.60;;;;;;;-147.86;100.00;1138.78;105698;1256;60647;-55
2024/02/25 10:18:49;;;;;;;15.60;4.90;;;;;;;-147.86;100.00;-794.58;105771;1259;74365;-55
2024/02/25 10:21:18;;;;;;;16.60;4.50;;;;;;;-147.86;100.00;1237.89;105782;1258;63296;-56
2024/02/25 10:23:54;;;;;;;13.80;5.00;;;;;;;-147.86;99.99;4660.83;105764;1257;72689;-55
2024/02/25 10:26:23;;;;;;;12.60;4.70;;;;;;;-147.86;99.23;9279.33;105737;1260;59753;-55
2024/02/25 10:29:05;;;;;;;12.80;4.70;;;;;;;-147.86;99.17;11863.65;105926;1254;59965;-57
2024/02/25 10:31:33;;;;;;;6.70;4.40;;;;;;;-147.86;99.47;10919.08;105756;1252;73701;-56
2024/02/25 10:34:01;;;;;;;10.90;4.70;;;;;;;-147.86;99.12;11516.06;105796;1258;65028;-59
2024/02/25 10:36:30;;;;;;;19.90;5.60;;;;;;;-147.86;97.71;18433.25;105731;1263;74459;-54
2024/02/25 10:39:00;;;;;;;13.50;7.50;;;;;;;-147.86;96.42;28686.01;105698;1259;59772;-57
2024/02/25 10:41:28;;;;;;;27.60;15.10;;;;;;;-147.86;96.82;31221.61;105724;1255;59731;-57
2024/02/25 10:44:02;;;;;;;20.40;10.40;;;;;;;-147.86;96.94;30089.58;105626;1259;73041;-55
2024/02/25 10:46:38;;;;;;;17.00;5.80;;;;;;;-147.86;96.81;30392.09;105778;1254;65155;-52
2024/02/25 10:49:07;;;;;;;10.00;5.10;;;;;;;-147.86;96.75;32128.49;105776;1259;72548;-55
2024/02/25 10:51:35;;;;;;;13.60;5.30;;;;;;;-147.86;96.10;34737.59;105740;1259;60947;-55
2024/02/25 10:54:04;;;;;;;19.50;4.50;;;;;;;-147.86;94.34;41718.20;105705;1259;59557;-51
2024/02/25 10:56:32;;;;;;;8.60;5.00;;;;;;;-147.86;93.96;43343.26;105730;1260;74290;-52
2024/02/25 10:59:00;;;;;;;19.40;4.90;;;;;;;-147.86;93.98;43526.14;105709;1256;64175;-54
2024/02/25 11:01:28;;;;;;;12.30;4.60;;;;;;;-147.86;94.21;43490.11;105720;1264;73152;-53
2024/02/25 11:03:57;;;;;;;14.70;4.60;;;;;;;-147.86;94.01;43599.38;105703;1260;59665;-50
2024/02/25 11:06:35;;;;;;;12.20;4.50;;;;;;;-147.86;93.10;44328.63;105719;1254;60880;-52
2024/02/25 11:09:18;;;;;;;17.20;5.50;;;;;;;-147.86;89.48;45452.16;105752;1257;73272;-54
2024/02/25 11:11:46;;;;;;;17.60;5.30;;;;;;;-147.86;88.40;45971.31;105774;1254;62781;-54
2024/02/25 11:14:35;;;;;;;23.20;5.70;;;;;;;-147.86;88.17;46084.96;105747;1258;74900;-48
2024/02/25 11:17:08;;;;;;;27.10;5.30;;;;;;;-147.86;88.85;46077.90;105787;1260;59633;-54
2024/02/25 11:19:35;;;;;;;23.90;5.70;;;;;;;-147.86;88.88;46111.60;105737;1257;61590;-55
2024/02/25 11:22:03;;;;;;;16.90;5.60;;;;;;;-147.86;87.08;46217.01;105705;1254;71840;-54
2024/02/25 11:24:47;;;;;;;28.00;8.50;;;;;;;-147.86;86.11;46334.19;105692;1257;64760;-55
2024/02/25 11:27:17;;;;;;;17.40;6.20;;;;;;;-147.86;86.23;46389.05;105753;1256;72768;-51
2024/02/25 11:29:45;;;;;;;19.30;8.20;;;;;;;-147.86;85.70;46423.15;105747;1258;60312;-48
2024/02/25 11:32:31;;;;;;;22.60;6.50;;;;;;;-147.86;83.51;46522.70;105711;1260;59924;-51
2024/02/25 12:01:17;;;;;;;19.40;6.30;;;;;;;-147.86;77.37;47008.68;103732;1284;601155;-56
2024/02/25 12:03:45;;;;;;;17.30;6.40;;;;;;;-147.86;77.68;47066.30;104997;1269;59450;-53
2024/02/25 12:06:13;;;;;;;20.10;6.50;;;;;;;-147.86;77.63;47087.07;105045;1264;60991;-54
2024/02/25 12:08:48;;;;;;;23.10;6.50;;;;;;;-147.86;75.29;47144.30;104782;1264;73175;-50
2024/02/25 12:11:15;;;;;;;20.20;7.10;;;;;;;-147.86;74.37;47197.61;105124;1269;64991;-54
2024/02/25 12:13:45;;;;;;;27.00;7.80;;;;;;;-147.86;74.37;47222.70;104876;1270;73164;-55
2024/02/25 12:16:13;;;;;;;19.80;6.30;;;;;;;-147.86;73.16;47265.03;105117;1261;59352;-54
2024/02/25 12:18:41;;;;;;;16.40;6.20;;;;;;;-147.86;71.88;47335.59;105205;1266;59419;-52
2024/02/25 12:21:09;;;;;;;14.10;7.00;;;;;;;-147.86;74.16;47344.21;105135;1264;71672;-56
2024/02/25 12:23:46;;;;;;;19.40;5.60;;;;;;;-147.86;75.11;47349.70;105197;1264;66780;-55